Time;durP1;ratioP1;P1;durP2;ratioP2;P2;SDS_P1;SDS_P2;PMS_P1;PMS_P2;Temp;Humidity;BMP_temperature;BMP_pressure;BME280_temperature;BME280_humidity;BME280_pressure;Samples;Min_cycle;Max_cycle;Signal;HPM_P1;HPM_P2
2022/11/14 00:00:44;;;;;;;3.20;2.05;;;;;;;;;;5092387;28;20022;-86
2022/11/14 00:03:11;;;;;;;2.75;2.03;;;;;;;;;;5090790;28;20479;-86
2022/11/14 00:05:42;;;;;;;2.83;1.85;;;;;;;;;;5092250;28;20042;-86
2022/11/14 00:08:18;;;;;;;1.48;1.30;;;;;;;;;;5089265;28;20035;-85
2022/11/14 00:10:47;;;;;;;1.83;1.60;;;;;;;;;;5089166;28;20028;-90
2022/11/14 00:13:14;;;;;;;1.80;1.13;;;;;;;;;;5090354;28;20063;-83
2022/11/14 00:15:39;;;;;;;1.15;1.05;;;;;;;;;;5092067;28;20443;-86
2022/11/14 00:18:05;;;;;;;1.65;1.50;;;;;;;;;;5090454;28;20116;-85
2022/11/14 00:20:31;;;;;;;3.15;2.63;;;;;;;;;;5092167;28;20036;-86
2022/11/14 00:22:56;;;;;;;4.63;3.20;;;;;;;;;;5089172;28;20110;-86
2022/11/14 00:25:22;;;;;;;5.38;2.88;;;;;;;;;;5090463;28;20027;-87
2022/11/14 00:27:47;;;;;;;2.55;1.98;;;;;;;;;;5089998;28;20019;-87
2022/11/14 00:30:13;;;;;;;3.00;2.17;;;;;;;;;;5091880;28;20367;-88
2022/11/14 00:32:38;;;;;;;3.70;2.60;;;;;;;;;;5089417;28;20043;-86
2022/11/14 00:35:04;;;;;;;4.40;2.25;;;;;;;;;;5088121;28;20036;-85
2022/11/14 00:37:30;;;;;;;2.80;1.95;;;;;;;;;;5090804;28;20040;-87
2022/11/14 00:39:56;;;;;;;2.72;2.10;;;;;;;;;;5089239;28;20047;-86
2022/11/14 00:42:21;;;;;;;2.13;1.30;;;;;;;;;;5090013;28;20270;-86
2022/11/14 00:44:46;;;;;;;1.52;1.42;;;;;;;;;;5089940;28;20028;-86
2022/11/14 00:47:12;;;;;;;1.35;1.10;;;;;;;;;;5091832;28;20073;-85
2022/11/14 00:49:37;;;;;;;3.05;2.15;;;;;;;;;;5090106;28;20036;-87
2022/11/14 00:52:03;;;;;;;1.40;1.30;;;;;;;;;;5090212;28;20028;-85
2022/11/14 00:54:28;;;;;;;3.22;1.65;;;;;;;;;;5090489;28;20077;-85
2022/11/14 00:56:54;;;;;;;1.80;1.15;;;;;;;;;;5088089;28;20020;-86
2022/11/14 00:59:19;;;;;;;2.10;1.15;;;;;;;;;;5090814;28;20024;-89
2022/11/14 01:01:45;;;;;;;2.47;1.48;;;;;;;;;;5089976;28;20436;-85
2022/11/14 01:04:10;;;;;;;3.50;1.90;;;;;;;;;;5091724;28;20036;-85
2022/11/14 01:06:36;;;;;;;0.85;0.80;;;;;;;;;;5091665;28;20095;-85
2022/11/14 01:09:01;;;;;;;2.58;1.55;;;;;;;;;;5088010;28;20221;-85
2022/11/14 01:11:27;;;;;;;2.03;1.35;;;;;;;;;;5092349;28;20020;-86
2022/11/14 01:13:52;;;;;;;1.63;1.40;;;;;;;;;;5085198;28;20031;-85
2022/11/14 01:16:18;;;;;;;2.08;1.70;;;;;;;;;;5090100;28;20020;-88
2022/11/14 01:18:44;;;;;;;4.30;3.05;;;;;;;;;;5090036;28;20472;-88
2022/11/14 01:21:11;;;;;;;1.92;1.73;;;;;;;;;;5090017;28;20024;-88
2022/11/14 01:23:37;;;;;;;1.10;0.98;;;;;;;;;;5094386;28;20089;-87
2022/11/14 01:26:10;;;;;;;3.97;2.17;;;;;;;;;;5094270;28;20020;-87
2022/11/14 01:28:35;;;;;;;1.92;1.50;;;;;;;;;;5093946;28;20028;-84
2022/11/14 01:31:13;;;;;;;3.50;1.85;;;;;;;;;;5092446;28;20032;-88
2022/11/14 01:33:39;;;;;;;1.48;0.93;;;;;;;;;;5092885;28;20031;-86
2022/11/14 01:36:05;;;;;;;3.30;2.28;;;;;;;;;;5093396;28;20043;-86
2022/11/14 01:38:31;;;;;;;3.40;1.95;;;;;;;;;;5094761;28;20480;-85
2022/11/14 01:40:56;;;;;;;1.60;1.20;;;;;;;;;;5093912;28;20099;-87
2022/11/14 01:43:31;;;;;;;2.05;1.60;;;;;;;;;;5093074;28;20036;-86
2022/11/14 01:46:05;;;;;;;2.63;1.33;;;;;;;;;;5091518;28;20032;-87
2022/11/14 01:48:31;;;;;;;1.85;1.27;;;;;;;;;;5092225;28;20024;-88
2022/11/14 01:51:04;;;;;;;3.33;1.35;;;;;;;;;;5093603;28;20035;-84
2022/11/14 01:53:30;;;;;;;1.73;1.25;;;;;;;;;;5094928;28;20039;-86
2022/11/14 01:56:00;;;;;;;1.50;1.40;;;;;;;;;;5092964;28;20028;-85
2022/11/14 01:58:27;;;;;;;1.48;1.33;;;;;;;;;;5090647;28;20467;-87
2022/11/14 02:00:53;;;;;;;1.75;1.05;;;;;;;;;;5093778;28;20384;-88
2022/11/14 02:03:19;;;;;;;2.45;1.50;;;;;;;;;;5094261;28;20024;-87
2022/11/14 02:05:46;;;;;;;4.32;2.72;;;;;;;;;;5094150;28;20024;-86
2022/11/14 02:08:13;;;;;;;4.20;2.38;;;;;;;;;;5091569;28;20032;-86
2022/11/14 02:10:38;;;;;;;3.13;2.00;;;;;;;;;;5091672;28;20052;-88
2022/11/14 02:13:04;;;;;;;1.70;1.17;;;;;;;;;;5094074;28;20052;-87
2022/11/14 02:15:29;;;;;;;3.13;1.83;;;;;;;;;;5094412;28;20030;-88
2022/11/14 02:17:55;;;;;;;2.53;1.88;;;;;;;;;;5092980;28;20038;-90
2022/11/14 02:20:23;;;;;;;6.72;3.08;;;;;;;;;;5093651;28;20020;-86
2022/11/14 02:22:49;;;;;;;3.33;1.65;;;;;;;;;;5089903;28;20020;-86
2022/11/14 02:25:16;;;;;;;2.33;1.33;;;;;;;;;;5092074;28;20022;-86
2022/11/14 02:27:42;;;;;;;1.45;1.30;;;;;;;;;;5089821;28;20536;-86
2022/11/14 02:30:17;;;;;;;1.30;1.10;;;;;;;;;;5093248;28;20095;-86
2022/11/14 02:32:43;;;;;;;0.82;0.82;;;;;;;;;;5088470;28;20483;-88
2022/11/14 02:35:08;;;;;;;2.38;1.48;;;;;;;;;;5088881;28;20047;-85
2022/11/14 02:37:34;;;;;;;1.65;1.45;;;;;;;;;;5092370;28;20032;-88
2022/11/14 02:39:59;;;;;;;1.67;1.48;;;;;;;;;;5092727;28;20024;-86
2022/11/14 02:42:25;;;;;;;2.80;1.92;;;;;;;;;;5094059;28;20032;-86
2022/11/14 02:44:50;;;;;;;2.05;1.60;;;;;;;;;;5092696;28;20024;-87
2022/11/14 02:47:16;;;;;;;1.13;1.02;;;;;;;;;;5093628;28;20074;-89
2022/11/14 02:49:41;;;;;;;2.33;1.00;;;;;;;;;;5089784;28;20425;-85
2022/11/14 02:52:06;;;;;;;2.20;1.48;;;;;;;;;;5089097;28;20081;-87
2022/11/14 02:54:32;;;;;;;3.10;1.63;;;;;;;;;;5093504;28;20102;-86
2022/11/14 02:56:57;;;;;;;2.97;2.17;;;;;;;;;;5092220;28;20032;-84
2022/11/14 02:59:22;;;;;;;1.33;1.08;;;;;;;;;;5091895;28;20146;-88
2022/11/14 03:01:48;;;;;;;4.68;2.30;;;;;;;;;;5093341;28;20652;-86
2022/11/14 03:04:13;;;;;;;2.15;1.13;;;;;;;;;;5091785;28;20028;-85
2022/11/14 03:06:39;;;;;;;1.77;1.13;;;;;;;;;;5091010;28;20012;-86
2022/11/14 03:09:04;;;;;;;3.00;1.70;;;;;;;;;;5090300;28;20490;-82
2022/11/14 03:11:30;;;;;;;2.38;1.40;;;;;;;;;;5092825;28;20119;-87
2022/11/14 03:13:55;;;;;;;5.63;1.90;;;;;;;;;;5088786;28;20035;-84
2022/11/14 03:16:21;;;;;;;2.55;1.50;;;;;;;;;;5093200;28;20032;-82
2022/11/14 03:18:46;;;;;;;2.63;1.80;;;;;;;;;;5090108;28;20103;-84
2022/11/14 03:21:16;;;;;;;3.10;1.20;;;;;;;;;;5086715;28;20034;-87
2022/11/14 03:23:41;;;;;;;2.33;1.77;;;;;;;;;;5089756;28;20027;-87
2022/11/14 03:26:08;;;;;;;2.88;2.10;;;;;;;;;;5091663;28;20047;-82
2022/11/14 03:28:34;;;;;;;1.73;1.35;;;;;;;;;;5088994;28;20162;-84
2022/11/14 03:31:00;;;;;;;3.92;1.80;;;;;;;;;;5091432;28;20028;-85
2022/11/14 03:33:26;;;;;;;2.58;1.60;;;;;;;;;;5092850;28;20103;-86
2022/11/14 03:35:52;;;;;;;4.15;1.40;;;;;;;;;;5091201;28;20075;-84
2022/11/14 03:38:21;;;;;;;0.88;0.88;;;;;;;;;;5092797;28;20031;-86
2022/11/14 03:40:47;;;;;;;2.33;1.77;;;;;;;;;;5091409;28;20024;-84
2022/11/14 03:43:13;;;;;;;3.47;2.13;;;;;;;;;;5091878;28;20032;-86
2022/11/14 03:45:38;;;;;;;1.45;1.23;;;;;;;;;;5093116;28;20047;-85
2022/11/14 03:48:05;;;;;;;5.75;2.00;;;;;;;;;;5087948;28;20364;-89
2022/11/14 03:50:30;;;;;;;2.97;1.90;;;;;;;;;;5091832;28;20032;-88
2022/11/14 03:52:56;;;;;;;3.20;2.05;;;;;;;;;;5090981;28;20103;-84
2022/11/14 03:55:21;;;;;;;1.60;1.50;;;;;;;;;;5089944;28;20031;-85
2022/11/14 03:57:47;;;;;;;1.58;1.13;;;;;;;;;;5091384;28;20012;-87
2022/11/14 04:00:12;;;;;;;1.67;1.48;;;;;;;;;;5092154;28;20043;-85
2022/11/14 04:02:38;;;;;;;2.40;1.92;;;;;;;;;;5091507;28;20149;-87
2022/11/14 04:05:03;;;;;;;6.70;2.60;;;;;;;;;;5088774;28;20077;-87
2022/11/14 04:07:29;;;;;;;1.33;1.23;;;;;;;;;;5089885;28;20030;-86
2022/11/14 04:09:54;;;;;;;3.83;1.75;;;;;;;;;;5090699;28;20023;-84
2022/11/14 04:12:20;;;;;;;2.67;1.63;;;;;;;;;;5091748;28;20024;-86
2022/11/14 04:14:45;;;;;;;1.35;1.27;;;;;;;;;;5090642;28;20032;-84
2022/11/14 04:17:11;;;;;;;2.08;1.58;;;;;;;;;;5089146;28;20143;-86
2022/11/14 04:19:36;;;;;;;1.90;1.60;;;;;;;;;;5091864;28;20032;-84
2022/11/14 04:22:02;;;;;;;1.27;1.10;;;;;;;;;;5091001;28;20051;-84
2022/11/14 04:24:27;;;;;;;1.67;0.85;;;;;;;;;;5091881;28;20031;-86
2022/11/14 04:26:53;;;;;;;2.80;1.42;;;;;;;;;;5090668;28;20365;-88
2022/11/14 04:29:18;;;;;;;1.27;1.05;;;;;;;;;;5091836;28;20059;-85
2022/11/14 04:31:44;;;;;;;1.35;1.10;;;;;;;;;;5091325;28;20093;-88
2022/11/14 04:34:09;;;;;;;2.47;1.58;;;;;;;;;;5091850;28;20024;-87
2022/11/14 04:36:34;;;;;;;2.47;1.27;;;;;;;;;;5090092;28;20500;-87
2022/11/14 04:39:00;;;;;;;0.80;0.47;;;;;;;;;;5089560;28;20034;-85
2022/11/14 04:41:25;;;;;;;3.35;1.40;;;;;;;;;;5091497;28;20080;-86
2022/11/14 04:43:51;;;;;;;2.42;1.77;;;;;;;;;;5091601;28;20030;-86
2022/11/14 04:46:16;;;;;;;2.83;1.20;;;;;;;;;;5090885;28;20020;-85
2022/11/14 04:48:42;;;;;;;1.23;1.00;;;;;;;;;;5091463;28;20035;-85
2022/11/14 04:51:07;;;;;;;2.15;1.60;;;;;;;;;;5087267;28;20020;-88
2022/11/14 04:53:33;;;;;;;1.33;1.08;;;;;;;;;;5090586;28;20471;-87
2022/11/14 04:55:58;;;;;;;1.52;1.40;;;;;;;;;;5094157;28;20039;-88
2022/11/14 04:58:23;;;;;;;1.52;1.13;;;;;;;;;;5096173;28;20043;-88
2022/11/14 05:00:49;;;;;;;1.30;1.17;;;;;;;;;;5094635;28;20081;-89
2022/11/14 05:03:14;;;;;;;3.38;2.20;;;;;;;;;;5093205;28;20052;-85
2022/11/14 05:05:40;;;;;;;1.98;1.33;;;;;;;;;;5095653;28;20050;-86
2022/11/14 05:08:05;;;;;;;1.65;1.55;;;;;;;;;;5093673;28;20115;-87
2022/11/14 05:10:31;;;;;;;2.55;1.67;;;;;;;;;;5093613;28;20093;-87
2022/11/14 05:12:56;;;;;;;2.53;1.73;;;;;;;;;;5095612;28;20035;-89
2022/11/14 05:15:22;;;;;;;0.85;0.80;;;;;;;;;;5095655;28;20046;-86
2022/11/14 05:17:47;;;;;;;0.80;0.80;;;;;;;;;;5092682;28;20031;-84
2022/11/14 05:20:13;;;;;;;1.77;1.45;;;;;;;;;;5093499;28;20039;-87
2022/11/14 05:22:38;;;;;;;2.17;1.38;;;;;;;;;;5095320;28;20577;-86
2022/11/14 05:25:04;;;;;;;17.73;2.17;;;;;;;;;;5094104;28;20028;-85
2022/11/14 05:27:30;;;;;;;2.85;2.13;;;;;;;;;;5095347;28;20020;-87
2022/11/14 05:29:55;;;;;;;4.80;2.88;;;;;;;;;;5094173;28;20035;-87
2022/11/14 05:32:21;;;;;;;2.78;2.40;;;;;;;;;;5092648;28;20383;-86
2022/11/14 05:34:46;;;;;;;2.15;1.17;;;;;;;;;;5093286;28;20097;-83
2022/11/14 05:37:12;;;;;;;1.95;1.27;;;;;;;;;;5094356;28;20032;-82
2022/11/14 05:39:37;;;;;;;3.15;2.35;;;;;;;;;;5092096;28;20023;-83
2022/11/14 05:42:03;;;;;;;1.52;1.40;;;;;;;;;;5094103;28;20031;-82
2022/11/14 05:44:29;;;;;;;1.55;1.42;;;;;;;;;;5090485;28;20032;-88
2022/11/14 05:46:54;;;;;;;1.25;1.15;;;;;;;;;;5091387;28;20032;-85
2022/11/14 05:49:19;;;;;;;2.17;1.50;;;;;;;;;;5094120;28;20102;-85
2022/11/14 05:51:45;;;;;;;2.72;1.73;;;;;;;;;;5088445;28;20047;-87
2022/11/14 05:54:10;;;;;;;6.57;3.33;;;;;;;;;;5091046;28;20056;-85
2022/11/14 05:56:36;;;;;;;2.88;2.58;;;;;;;;;;5091084;28;20106;-86
2022/11/14 05:59:01;;;;;;;3.95;2.80;;;;;;;;;;5091106;28;20027;-86
2022/11/14 06:01:27;;;;;;;2.25;2.05;;;;;;;;;;5093903;28;20034;-86
2022/11/14 06:03:52;;;;;;;11.30;7.70;;;;;;;;;;5092175;28;20439;-87
2022/11/14 06:06:20;;;;;;;7.70;5.40;;;;;;;;;;5092294;28;20149;-87
2022/11/14 06:08:45;;;;;;;7.13;4.55;;;;;;;;;;5087891;28;20028;-84
2022/11/14 06:11:14;;;;;;;4.85;4.30;;;;;;;;;;5090537;28;20047;-85
2022/11/14 06:13:40;;;;;;;11.85;6.03;;;;;;;;;;5091600;28;20097;-83
2022/11/14 06:16:09;;;;;;;10.00;6.78;;;;;;;;;;5092789;28;20112;-83
2022/11/14 06:18:35;;;;;;;7.53;5.63;;;;;;;;;;5093484;28;20054;-84
2022/11/14 06:21:18;;;;;;;10.30;6.13;;;;;;;;;;5094014;28;20476;-86
2022/11/14 06:23:44;;;;;;;8.63;6.53;;;;;;;;;;5085283;28;20459;-85
2022/11/14 06:26:20;;;;;;;6.20;5.32;;;;;;;;;;5092127;28;20016;-85
2022/11/14 06:28:46;;;;;;;8.13;5.38;;;;;;;;;;5092106;28;20024;-86
2022/11/14 06:31:11;;;;;;;11.23;6.53;;;;;;;;;;5092531;28;20031;-83
2022/11/14 06:33:36;;;;;;;9.32;5.68;;;;;;;;;;5093397;28;20035;-83
2022/11/14 06:36:05;;;;;;;10.10;5.43;;;;;;;;;;5093364;28;20503;-82
2022/11/14 06:38:32;;;;;;;12.68;6.30;;;;;;;;;;5092729;28;20039;-83
2022/11/14 06:41:15;;;;;;;8.00;6.28;;;;;;;;;;5092993;28;20028;-85
2022/11/14 06:43:43;;;;;;;12.55;6.88;;;;;;;;;;5092219;28;20023;-85
2022/11/14 06:46:10;;;;;;;16.80;7.18;;;;;;;;;;5091265;28;20111;-84
2022/11/14 06:48:36;;;;;;;14.38;8.50;;;;;;;;;;5093666;28;20058;-85
2022/11/14 06:51:03;;;;;;;9.43;7.35;;;;;;;;;;5089444;28;20031;-83
2022/11/14 06:53:30;;;;;;;11.82;7.30;;;;;;;;;;5088798;28;20019;-85
2022/11/14 06:56:03;;;;;;;11.20;6.85;;;;;;;;;;5090907;28;20063;-84
2022/11/14 06:58:30;;;;;;;9.80;6.97;;;;;;;;;;5091846;28;20110;-83
2022/11/14 07:01:01;;;;;;;11.20;5.95;;;;;;;;;;5092785;28;20032;-86
2022/11/14 07:03:26;;;;;;;17.45;7.47;;;;;;;;;;5091721;28;20020;-85
2022/11/14 07:05:51;;;;;;;18.40;9.82;;;;;;;;;;5092179;28;20024;-86
2022/11/14 07:08:17;;;;;;;14.25;10.60;;;;;;;;;;5092923;28;20024;-82
2022/11/14 07:10:42;;;;;;;15.40;11.25;;;;;;;;;;5092715;28;20039;-86
2022/11/14 07:13:10;;;;;;;14.50;10.60;;;;;;;;;;5093219;28;20020;-84
2022/11/14 07:15:35;;;;;;;18.42;9.98;;;;;;;;;;5091238;28;20487;-84
2022/11/14 07:18:01;;;;;;;18.40;10.38;;;;;;;;;;5090506;28;20032;-83
2022/11/14 07:20:26;;;;;;;21.65;11.40;;;;;;;;;;5091271;28;20483;-84
2022/11/14 07:22:52;;;;;;;21.75;13.30;;;;;;;;;;5091267;28;20088;-86
2022/11/14 07:25:17;;;;;;;16.67;10.23;;;;;;;;;;5088022;28;20024;-83
2022/11/14 07:27:42;;;;;;;16.35;9.02;;;;;;;;;;5092503;28;20020;-86
2022/11/14 07:30:08;;;;;;;15.27;8.98;;;;;;;;;;5090660;28;20039;-84
2022/11/14 07:32:34;;;;;;;14.77;10.38;;;;;;;;;;5087820;28;20468;-82
2022/11/14 07:34:59;;;;;;;11.30;7.00;;;;;;;;;;5092126;28;20040;-84
2022/11/14 07:37:25;;;;;;;13.38;8.32;;;;;;;;;;5090345;28;20076;-83
2022/11/14 07:39:50;;;;;;;16.02;9.13;;;;;;;;;;5089701;28;20024;-86
2022/11/14 07:42:15;;;;;;;18.33;11.23;;;;;;;;;;5091342;28;20043;-84
2022/11/14 07:44:41;;;;;;;15.32;10.40;;;;;;;;;;5090562;28;20349;-86
2022/11/14 07:47:06;;;;;;;16.38;9.98;;;;;;;;;;5092075;28;20024;-84
2022/11/14 07:49:33;;;;;;;31.40;12.35;;;;;;;;;;5090689;28;20024;-85
2022/11/14 07:51:58;;;;;;;30.73;15.15;;;;;;;;;;5090216;28;20036;-83
2022/11/14 07:54:24;;;;;;;19.30;10.98;;;;;;;;;;5092186;28;20020;-86
2022/11/14 07:56:49;;;;;;;18.10;10.90;;;;;;;;;;5089143;28;20023;-85
2022/11/14 07:59:15;;;;;;;16.67;11.32;;;;;;;;;;5092013;28;20035;-82
2022/11/14 08:01:40;;;;;;;19.60;11.65;;;;;;;;;;5091844;28;20024;-83
2022/11/14 08:04:06;;;;;;;15.27;10.15;;;;;;;;;;5090407;28;20034;-83
2022/11/14 08:06:31;;;;;;;15.98;10.52;;;;;;;;;;5089582;28;20024;-83
2022/11/14 08:08:56;;;;;;;21.52;12.07;;;;;;;;;;5087665;28;20020;-84
2022/11/14 08:14:06;;;;;;;15.75;8.43;;;;;;;;;;5091496;28;20035;-82
2022/11/14 08:16:32;;;;;;;19.08;11.05;;;;;;;;;;5090508;28;20414;-83
2022/11/14 08:19:00;;;;;;;15.93;10.50;;;;;;;;;;5091273;28;20042;-83
2022/11/14 08:21:25;;;;;;;13.38;8.70;;;;;;;;;;5091808;28;20521;-83
2022/11/14 08:23:50;;;;;;;17.10;10.50;;;;;;;;;;5092382;28;20016;-83
2022/11/14 08:26:16;;;;;;;15.30;10.32;;;;;;;;;;5089234;28;20031;-83
2022/11/14 08:28:41;;;;;;;12.68;8.35;;;;;;;;;;5090561;28;20547;-85
2022/11/14 08:31:08;;;;;;;24.70;15.45;;;;;;;;;;5092818;28;20356;-82
2022/11/14 08:33:34;;;;;;;15.65;9.00;;;;;;;;;;5091522;28;20402;-84
2022/11/14 08:36:03;;;;;;;13.23;9.50;;;;;;;;;;5092018;28;20039;-86
2022/11/14 08:38:32;;;;;;;19.77;9.90;;;;;;;;;;5087925;28;20483;-83
2022/11/14 08:40:59;;;;;;;10.80;8.03;;;;;;;;;;5084995;28;20063;-82
2022/11/14 08:43:25;;;;;;;14.50;8.35;;;;;;;;;;5070089;28;20043;-83
2022/11/14 08:45:50;;;;;;;16.52;9.77;;;;;;;;;;5089153;28;20020;-81
2022/11/14 08:48:16;;;;;;;40.72;23.90;;;;;;;;;;5090957;28;20065;-82
2022/11/14 08:50:41;;;;;;;41.75;21.90;;;;;;;;;;5089176;28;20103;-84
2022/11/14 08:53:07;;;;;;;19.13;12.10;;;;;;;;;;5091956;28;20092;-84
2022/11/14 08:55:32;;;;;;;15.30;9.18;;;;;;;;;;5087611;28;20392;-85
2022/11/14 08:57:58;;;;;;;22.15;10.93;;;;;;;;;;5086593;28;20026;-85
2022/11/14 09:00:23;;;;;;;16.20;10.32;;;;;;;;;;5090325;28;20077;-85
2022/11/14 09:02:49;;;;;;;17.42;9.85;;;;;;;;;;5085557;28;20476;-85
2022/11/14 09:05:14;;;;;;;20.80;9.55;;;;;;;;;;5089630;28;20027;-82
2022/11/14 09:07:40;;;;;;;19.48;9.73;;;;;;;;;;5089991;28;20022;-84
2022/11/14 09:10:06;;;;;;;17.27;8.88;;;;;;;;;;5091302;28;20372;-86
2022/11/14 09:12:32;;;;;;;18.85;9.65;;;;;;;;;;5088319;28;20055;-82
2022/11/14 09:14:57;;;;;;;14.57;8.73;;;;;;;;;;5088526;28;20055;-86
2022/11/14 09:17:23;;;;;;;15.55;8.70;;;;;;;;;;5088144;28;20043;-83
2022/11/14 09:19:49;;;;;;;24.17;11.95;;;;;;;;;;5090932;28;20039;-84
2022/11/14 09:22:14;;;;;;;15.05;9.65;;;;;;;;;;5090515;28;20516;-85
2022/11/14 09:24:46;;;;;;;18.83;9.98;;;;;;;;;;5090007;28;20028;-87
2022/11/14 09:27:12;;;;;;;19.75;12.10;;;;;;;;;;5090373;28;20024;-84
2022/11/14 09:29:37;;;;;;;14.13;9.55;;;;;;;;;;5088998;28;20031;-85
2022/11/14 09:32:03;;;;;;;13.07;9.65;;;;;;;;;;5088136;28;20387;-87
2022/11/14 09:34:28;;;;;;;18.88;12.38;;;;;;;;;;5086286;28;20502;-84
2022/11/14 09:36:54;;;;;;;17.55;9.43;;;;;;;;;;5085536;28;20485;-85
2022/11/14 09:39:19;;;;;;;23.65;8.80;;;;;;;;;;5090992;28;20043;-87
2022/11/14 09:42:27;;;;;;;18.25;8.98;;;;;;;;;;5094376;28;20028;-89
2022/11/14 09:45:01;;;;;;;15.77;8.85;;;;;;;;;;5043275;28;20030;-86
2022/11/14 09:47:36;;;;;;;12.32;6.60;;;;;;;;;;5085521;28;20118;-86
2022/11/14 09:50:05;;;;;;;19.33;10.23;;;;;;;;;;5094313;28;20039;-84
2022/11/14 09:52:34;;;;;;;;;;;;;;;;;;5094541;28;20028;-88
2022/11/14 09:55:12;;;;;;;19.70;10.00;;;;;;;;;;5094276;28;19919;-87
2022/11/14 09:57:40;;;;;;;18.27;9.25;;;;;;;;;;5091735;28;20383;-85
2022/11/14 10:00:17;;;;;;;18.13;9.45;;;;;;;;;;5089151;28;20047;-85
2022/11/14 10:02:57;;;;;;;22.50;10.88;;;;;;;;;;5093909;28;20028;-86
2022/11/14 10:05:42;;;;;;;17.00;10.65;;;;;;;;;;5093604;28;20107;-86
2022/11/14 10:08:42;;;;;;;14.43;9.57;;;;;;;;;;5094331;28;20051;-85
2022/11/14 10:11:09;;;;;;;;;;;;;;;;;;5094330;28;20035;-85
2022/11/14 10:13:59;;;;;;;14.15;7.43;;;;;;;;;;5094679;28;19985;-85
2022/11/14 10:16:36;;;;;;;;;;;;;;;;;;5093482;28;20024;-84
2022/11/14 10:19:19;;;;;;;13.20;8.57;;;;;;;;;;5093772;28;20421;-84
2022/11/14 10:21:56;;;;;;;18.13;10.57;;;;;;;;;;5091390;28;20035;-85
2022/11/14 10:24:58;;;;;;;10.88;6.72;;;;;;;;;;5090888;28;20047;-83
2022/11/14 10:27:32;;;;;;;16.38;8.82;;;;;;;;;;5091939;28;20383;-85
2022/11/14 10:30:14;;;;;;;13.10;8.40;;;;;;;;;;5093357;28;20383;-84
2022/11/14 10:33:13;;;;;;;11.73;7.88;;;;;;;;;;5091641;28;20391;-85
2022/11/14 10:35:56;;;;;;;15.95;8.55;;;;;;;;;;5092869;28;20040;-88
2022/11/14 10:38:30;;;;;;;13.05;7.97;;;;;;;;;;5093305;28;20442;-86
2022/11/14 10:41:00;;;;;;;15.35;7.85;;;;;;;;;;5092939;28;20064;-87
2022/11/14 10:43:40;;;;;;;12.63;8.85;;;;;;;;;;5092058;28;20024;-84
2022/11/14 10:46:09;;;;;;;15.82;10.02;;;;;;;;;;5094424;28;20081;-85
2022/11/14 10:48:38;;;;;;;9.90;6.18;;;;;;;;;;5094585;28;20023;-86
2022/11/14 10:51:23;;;;;;;20.38;11.60;;;;;;;;;;5089868;28;20047;-87
2022/11/14 10:53:55;;;;;;;18.45;9.05;;;;;;;;;;5092094;28;20036;-86
2022/11/14 10:56:20;;;;;;;16.15;8.10;;;;;;;;;;5091787;28;20115;-86
2022/11/14 10:58:46;;;;;;;15.30;8.80;;;;;;;;;;5092965;28;20058;-83
2022/11/14 11:01:49;;;;;;;15.75;9.18;;;;;;;;;;5092425;28;20027;-84
2022/11/14 11:04:31;;;;;;;11.80;8.15;;;;;;;;;;5092772;28;20020;-82
2022/11/14 11:07:06;;;;;;;12.98;8.43;;;;;;;;;;5087874;28;20023;-84
2022/11/14 11:12:23;;;;;;;12.05;7.78;;;;;;;;;;5091658;28;20092;-84
2022/11/14 11:15:07;;;;;;;14.07;9.05;;;;;;;;;;5093715;28;20393;-86
2022/11/14 11:17:33;;;;;;;16.15;8.38;;;;;;;;;;5091332;28;20031;-85
2022/11/14 11:20:23;;;;;;;18.02;8.75;;;;;;;;;;5093243;28;20032;-85
2022/11/14 11:23:02;;;;;;;12.90;7.88;;;;;;;;;;5093751;28;20032;-85
2022/11/14 11:25:30;;;;;;;15.90;11.40;;;;;;;;;;5090741;28;20051;-85
2022/11/14 11:28:16;;;;;;;15.48;9.10;;;;;;;;;;5088190;28;20031;-84
2022/11/14 11:30:57;;;;;;;16.38;9.13;;;;;;;;;;5093438;28;20039;-86
2022/11/14 11:33:28;;;;;;;15.13;7.47;;;;;;;;;;5093115;28;20028;-85
2022/11/14 11:35:57;;;;;;;13.90;8.10;;;;;;;;;;5091639;28;20472;-85
2022/11/14 11:38:28;;;;;;;18.98;7.65;;;;;;;;;;5089806;28;20031;-84
2022/11/14 11:41:12;;;;;;;12.45;7.97;;;;;;;;;;5091757;28;20028;-84
2022/11/14 11:44:01;;;;;;;15.70;9.70;;;;;;;;;;5092393;28;20380;-83
2022/11/14 11:47:02;;;;;;;13.25;8.95;;;;;;;;;;5091888;28;20030;-83
2022/11/14 11:49:42;;;;;;;13.88;8.25;;;;;;;;;;5092501;28;20028;-86
2022/11/14 11:52:27;;;;;;;14.02;8.43;;;;;;;;;;5087934;28;20396;-84
2022/11/14 11:55:07;;;;;;;13.38;7.53;;;;;;;;;;5089281;28;20388;-85
2022/11/14 11:57:42;;;;;;;11.15;7.35;;;;;;;;;;5090975;28;20486;-84
2022/11/14 12:00:19;;;;;;;13.75;7.93;;;;;;;;;;5091797;28;20028;-86
2022/11/14 12:02:54;;;;;;;13.98;8.35;;;;;;;;;;5092156;28;20020;-87
2022/11/14 12:05:48;;;;;;;22.58;10.10;;;;;;;;;;5089278;28;20047;-83
2022/11/14 12:08:25;;;;;;;13.02;7.90;;;;;;;;;;5091289;28;20020;-84
2022/11/14 12:10:52;;;;;;;9.80;6.90;;;;;;;;;;5092878;28;20440;-85
2022/11/14 12:14:02;;;;;;;19.27;8.38;;;;;;;;;;5090929;28;20027;-84
2022/11/14 12:16:59;;;;;;;22.98;8.65;;;;;;;;;;5059233;28;20044;-86
2022/11/14 12:19:33;;;;;;;13.90;8.32;;;;;;;;;;5092027;28;20023;-84
2022/11/14 12:22:36;;;;;;;13.32;8.82;;;;;;;;;;5086403;28;20054;-88
2022/11/14 12:25:15;;;;;;;11.23;8.23;;;;;;;;;;5089973;28;20032;-87
2022/11/14 12:28:19;;;;;;;17.67;9.93;;;;;;;;;;5090259;28;20028;-86
2022/11/14 12:30:52;;;;;;;11.93;7.85;;;;;;;;;;5089795;28;20032;-84
2022/11/14 12:33:29;;;;;;;14.27;7.93;;;;;;;;;;5091660;28;20035;-86
2022/11/14 12:36:01;;;;;;;15.25;8.25;;;;;;;;;;5088350;28;20055;-86
2022/11/14 12:38:33;;;;;;;11.98;8.10;;;;;;;;;;5089129;28;20032;-86
2022/11/14 12:41:00;;;;;;;14.70;8.15;;;;;;;;;;5089074;28;20028;-87
2022/11/14 12:43:33;;;;;;;15.55;8.13;;;;;;;;;;5089646;28;20479;-84
2022/11/14 12:46:02;;;;;;;16.45;9.57;;;;;;;;;;5089401;28;20024;-84
2022/11/14 12:48:31;;;;;;;14.15;8.18;;;;;;;;;;5091598;28;20063;-88
2022/11/14 12:50:58;;;;;;;13.68;7.75;;;;;;;;;;5087072;28;20024;-85
2022/11/14 12:53:35;;;;;;;16.17;8.45;;;;;;;;;;5091915;28;20024;-85
2022/11/14 12:56:28;;;;;;;17.65;7.68;;;;;;;;;;5089969;28;20043;-85
2022/11/14 12:59:12;;;;;;;10.50;5.75;;;;;;;;;;5089686;28;20024;-85
2022/11/14 13:01:52;;;;;;;11.52;5.65;;;;;;;;;;5090709;28;20436;-86
2022/11/14 13:04:58;;;;;;;5.63;3.22;;;;;;;;;;5091454;28;20529;-86
2022/11/14 13:07:54;;;;;;;3.42;2.40;;;;;;;;;;5089988;28;20436;-89
2022/11/14 13:10:30;;;;;;;3.47;2.40;;;;;;;;;;5090178;28;20058;-87
2022/11/14 13:22:40;;;;;;;2.13;1.42;;;;;;;;;;5094613;28;20145;-86
2022/11/14 13:25:18;;;;;;;3.50;2.42;;;;;;;;;;5049186;28;20402;-85
2022/11/14 13:27:44;;;;;;;4.70;2.65;;;;;;;;;;5127873;27;20016;-84
2022/11/14 13:30:09;;;;;;;5.10;2.75;;;;;;;;;;5095242;28;20085;-87
2022/11/14 13:32:41;;;;;;;5.88;3.22;;;;;;;;;;5092927;28;20032;-85
2022/11/14 13:35:14;;;;;;;2.55;2.13;;;;;;;;;;5087575;28;20066;-86
2022/11/14 13:38:17;;;;;;;3.42;2.17;;;;;;;;;;5091446;28;20032;-87
2022/11/14 13:41:23;;;;;;;3.65;2.20;;;;;;;;;;5087168;28;20042;-84
2022/11/14 13:44:30;;;;;;;3.63;2.28;;;;;;;;;;5092783;28;20121;-85
2022/11/14 13:47:32;;;;;;;4.82;2.47;;;;;;;;;;5092681;28;20027;-85
2022/11/14 13:49:59;;;;;;;3.75;2.33;;;;;;;;;;5093280;28;20028;-83
2022/11/14 13:52:30;;;;;;;2.95;1.80;;;;;;;;;;5092427;28;20036;-87
2022/11/14 13:54:56;;;;;;;3.80;2.28;;;;;;;;;;5091705;28;20360;-85
2022/11/14 13:57:46;;;;;;;2.65;1.98;;;;;;;;;;5093149;28;20048;-86
2022/11/14 14:00:12;;;;;;;1.50;1.40;;;;;;;;;;5092522;28;20494;-86
2022/11/14 14:03:09;;;;;;;1.83;1.60;;;;;;;;;;5094489;28;20024;-86
2022/11/14 14:05:50;;;;;;;2.33;1.50;;;;;;;;;;5093563;28;20052;-85
2022/11/14 14:08:51;;;;;;;3.08;1.77;;;;;;;;;;5091364;28;20020;-83
2022/11/14 14:11:41;;;;;;;2.10;1.58;;;;;;;;;;5092323;28;20095;-82
2022/11/14 14:14:19;;;;;;;3.92;1.73;;;;;;;;;;5091909;28;20434;-83
2022/11/14 14:16:55;;;;;;;1.63;1.40;;;;;;;;;;5086666;28;20032;-84
2022/11/14 14:20:04;;;;;;;3.78;1.80;;;;;;;;;;5091748;28;20114;-84
2022/11/14 14:22:54;;;;;;;3.92;2.70;;;;;;;;;;5085227;28;20031;-83
2022/11/14 14:25:26;;;;;;;1.90;1.33;;;;;;;;;;5090595;28;20051;-84
2022/11/14 14:28:27;;;;;;;4.47;2.67;;;;;;;;;;5091251;28;20040;-84
2022/11/14 14:31:15;;;;;;;2.78;2.17;;;;;;;;;;5065240;28;20033;-85
2022/11/14 14:33:45;;;;;;;3.10;2.30;;;;;;;;;;5090538;28;20093;-84
2022/11/14 14:36:26;;;;;;;;;;;;;;;;;;5092404;28;20048;-86
2022/11/14 14:39:15;;;;;;;1.48;1.02;;;;;;;;;;5088874;28;19916;-87
2022/11/14 14:41:41;;;;;;;4.10;2.03;;;;;;;;;;5091484;28;20094;-84
2022/11/14 14:44:27;;;;;;;1.75;1.35;;;;;;;;;;5092942;28;20103;-88
2022/11/14 14:46:53;;;;;;;3.85;2.28;;;;;;;;;;5092138;28;20020;-86
2022/11/14 14:49:29;;;;;;;2.50;1.92;;;;;;;;;;5092727;28;20036;-88
2022/11/14 14:51:55;;;;;;;4.80;2.20;;;;;;;;;;5092313;28;20032;-86
2022/11/14 14:54:28;;;;;;;4.05;2.80;;;;;;;;;;5089587;28;20487;-87
2022/11/14 14:57:02;;;;;;;2.67;2.33;;;;;;;;;;5094056;28;20464;-87
2022/11/14 14:59:29;;;;;;;3.38;1.90;;;;;;;;;;5092468;28;20034;-84
2022/11/14 15:01:56;;;;;;;5.72;3.75;;;;;;;;;;5090894;28;20085;-85
2022/11/14 15:04:37;;;;;;;8.18;2.75;;;;;;;;;;5092958;28;20119;-84
2022/11/14 15:07:02;;;;;;;5.35;2.42;;;;;;;;;;5093680;28;20098;-88
2022/11/14 15:09:28;;;;;;;2.25;1.55;;;;;;;;;;5087925;28;20112;-84
2022/11/14 15:12:00;;;;;;;3.00;1.60;;;;;;;;;;5091497;28;20796;-85
2022/11/14 15:14:28;;;;;;;2.45;1.65;;;;;;;;;;5091640;28;20032;-83